DIBK

Bouaké Airport

Côte D’Ivoire
TAF DIBK 261100Z 2612/2712 21007KT 9999 SCT013 TEMPO 2612/2618 BKN010 PROB30 TEMPO 2614/2620 TS BKN012 FEW023CB PROB30 TEMPO 2615/2619 4000 TSRA BKN010 FEW023CB BKN030 PROB30 TEMPO 2704/2710 4000 RA BKN010 BKN030
Issued Valid From Valid To
Apr-26 @ 11:00 UTC
(3 hours ago)
Apr-26 @ 12:00 UTC
(2 hours ago)
Apr-27 @ 12:00 UTC
(in 22 hours)
Apr-26 @ 12:00 to Apr-27 @ 12:00
TAF DIBK 261100Z 2612/2712 21007KT 9999 SCT013
Wind Visibility Clouds
210° at 7 knots 10,000+ meters
  • Scattered at 1,300' AGL
Temporary Apr-26 @ 12:00 to Apr-26 @ 18:00
TEMPO 2612/2618 BKN010
Clouds
  • Broken at 1,000' AGL
Temporary  (Probability 30%) Apr-26 @ 14:00 to Apr-26 @ 20:00
PROB30 TEMPO 2614/2620 TS BKN012 FEW023CB
Clouds Conditions
  • Broken at 1,200' AGL
  • Few at 2,300' AGL
  • Thunderstorm
Temporary  (Probability 30%) Apr-26 @ 15:00 to Apr-26 @ 19:00
PROB30 TEMPO 2615/2619 4000 TSRA BKN010 FEW023CB BKN030
Visibility Clouds Conditions
4,007 meters
  • Broken at 1,000' AGL
  • Few at 2,300' AGL
  • Broken at 3,000' AGL
  • Thunderstorm
  • Rain
Temporary  (Probability 30%) Apr-27 @ 04:00 to Apr-27 @ 10:00
PROB30 TEMPO 2704/2710 4000 RA BKN010 BKN030
Visibility Clouds Conditions
4,007 meters
  • Broken at 1,000' AGL
  • Broken at 3,000' AGL
  • Rain
TAF DIBK 261100Z 2612/2712 21007KT 9999 SCT013 TEMPO 2612/2618 BKN010 PROB30 TEMPO 2614/2620 TS BKN012 FEW023CB PROB30 TEMPO 2615/2619 4000 TSRA BKN010 FEW023CB BKN030 PROB30 TEMPO 2704/2710 4000 RA BKN010 BKN030
Issued Apr-26 @ 11:00 UTC
(3 hours ago)
Valid From Apr-26 @ 12:00 UTC
(2 hours ago)
Valid To Apr-27 @ 12:00 UTC
(in 22 hours)
Apr-26 @ 12:00 - Apr-27 @ 12:00
Wind Visibility
210° at 7 knots 10,000+ meters
Clouds
  • Scattered at 1,300' AGL
Temporary Apr-26 @ 12:00 - Apr-26 @ 18:00
Clouds
  • Broken at 1,000' AGL
Probability 30% Temporary Apr-26 @ 14:00 - Apr-26 @ 20:00
Clouds
  • Broken at 1,200' AGL
  • Few at 2,300' AGL
Conditions
  • Thunderstorm
Probability 30% Temporary Apr-26 @ 15:00 - Apr-26 @ 19:00
Clouds
  • Broken at 1,000' AGL
  • Few at 2,300' AGL
  • Broken at 3,000' AGL
Conditions
  • Thunderstorm
  • Rain
Probability 30% Temporary Apr-27 @ 04:00 - Apr-27 @ 10:00
Clouds
  • Broken at 1,000' AGL
  • Broken at 3,000' AGL
Conditions
  • Rain